Terminal Aerodrome Forecast
Issued by NWS

Home | Current Version | Previous Version | Text Only | Print | Product List | Glossary On
Versions: 1 2 3 4 5 6 7 8 9 10 11 12 13 14 15 16 17 18 19 20 21 22 23 24
000
FTUS45 KFGZ 021100
TAFSEZ
TAF
KSEZ 021140Z 0212/0312 21017G27KT P6SM -SHRA BKN010 OVC015
     FM021500 23017G27KT 4SM RA BR BKN012 OVC020
     FM022100 24012G20KT 6SM -SHRA BKN015
     FM030100 24009KT P6SM -SHRA BKN025=

USA.gov is the U.S. government's official web portal to all federal, state and local government web resources and services.